Pittsburgh, Pennsylvania
Traffic Map
Current Weather Conditions
Pittsburgh, Pennsylvania
Overcast
Overcast

Feels Like: 6°
Wind Chill: Ceiling: 10000
Heat Index: Visibility: 10mi
Dew Point: -4° Wind: 8mph
Humidity: 41% Direction: 190° (S)
Pressure: 30.11in Gusts: 0mph
Raw Report DataKAGC 230053Z 19007KT 10SM OVC100 08/M04 A3011 RMK AO2 SLP214 T00831044
Traffic Incident Summary
Active as of:
Severity:
Category:
InformationThere was an issue retrieving the traffic information for this location. Please try a different location or try again shortly.
Advertisements
Track Severe Weather on mobile